Time;durP1;ratioP1;P1;durP2;ratioP2;P2;SDS_P1;SDS_P2;PMS_P1;PMS_P2;Temp;Humidity;BMP_temperature;BMP_pressure;BME280_temperature;BME280_humidity;BME280_pressure;Samples;Min_cycle;Max_cycle;Signal;HPM_P1;HPM_P2
2021/03/27 00:00:54;;;;;;;8.05;4.28;;;;;;;8.95;69.68;100828.34;6247861;28;20053;-79
2021/03/27 00:04:05;;;;;;;7.70;4.35;;;;;;;8.99;69.79;100826.41;6248626;28;20053;-80
2021/03/27 00:07:13;;;;;;;7.68;3.78;;;;;;;8.96;69.77;100822.16;6248526;28;20167;-80
2021/03/27 00:10:20;;;;;;;9.48;5.05;;;;;;;9.01;69.85;100814.94;6248437;28;20046;-79
2021/03/27 00:13:30;;;;;;;6.97;3.80;;;;;;;9.05;69.18;100807.78;6247246;28;20060;-80
2021/03/27 00:16:36;;;;;;;7.85;4.28;;;;;;;9.00;69.84;100809.78;6245178;28;20549;-79
2021/03/27 00:19:42;;;;;;;10.07;4.40;;;;;;;8.98;69.67;100798.50;6246723;28;20053;-79
2021/03/27 00:22:48;;;;;;;11.30;4.13;;;;;;;8.90;69.29;100793.59;6248429;28;20049;-79
2021/03/27 00:25:58;;;;;;;7.78;3.72;;;;;;;8.83;70.10;100794.81;6248458;28;20045;-79
2021/03/27 00:29:02;;;;;;;;;;;;;;;8.80;69.84;100780.06;6248757;28;20499;-79
2021/03/27 00:32:09;;;;;;;8.20;3.72;;;;;;;8.86;70.08;100781.59;6248045;28;19927;-80
2021/03/27 00:35:15;;;;;;;7.15;3.88;;;;;;;8.88;69.97;100780.56;6248250;28;20053;-79
2021/03/27 00:38:21;;;;;;;8.02;3.83;;;;;;;8.85;69.47;100767.59;6248139;28;20399;-80
2021/03/27 00:41:27;;;;;;;8.07;4.15;;;;;;;8.84;69.59;100765.91;6247095;28;20045;-79
2021/03/27 00:44:32;;;;;;;9.98;3.53;;;;;;;8.83;70.25;100761.59;6250868;23;20042;-77
2021/03/27 00:47:37;;;;;;;6.82;3.42;;;;;;;8.84;69.58;100757.19;6211291;28;20046;-77
2021/03/27 00:50:42;;;;;;;7.00;3.67;;;;;;;8.77;69.61;100754.03;6223114;28;20046;-77
2021/03/27 00:53:50;;;;;;;7.55;3.50;;;;;;;8.76;70.44;100751.44;6223039;28;20426;-80
2021/03/27 00:57:00;;;;;;;9.32;4.18;;;;;;;8.76;70.17;100738.34;6223137;28;20058;-77
2021/03/27 01:00:09;;;;;;;6.22;3.58;;;;;;;8.74;70.20;100730.56;6223116;28;20049;-77
2021/03/27 01:03:13;;;;;;;9.40;3.70;;;;;;;8.76;70.58;100720.84;6214890;28;20053;-77
2021/03/27 01:06:18;;;;;;;9.20;3.88;;;;;;;8.78;71.02;100718.19;6222976;28;20053;-77
2021/03/27 01:09:28;;;;;;;7.38;3.85;;;;;;;8.92;70.61;100713.16;6222978;28;20061;-77
2021/03/27 01:12:33;;;;;;;9.77;4.30;;;;;;;8.95;70.63;100706.91;6222620;28;20046;-77
2021/03/27 01:15:40;;;;;;;9.48;3.65;;;;;;;9.07;69.45;100704.56;6222927;28;20061;-77
2021/03/27 01:18:45;;;;;;;8.35;3.83;;;;;;;9.10;69.59;100695.69;6222858;28;20529;-77
2021/03/27 01:21:48;;;;;;;6.20;3.83;;;;;;;9.11;68.94;100684.28;6222448;28;20050;-77
2021/03/27 01:24:50;;;;;;;5.30;3.78;;;;;;;9.10;68.78;100680.81;6222412;28;20054;-77
2021/03/27 01:27:54;;;;;;;7.93;3.60;;;;;;;9.16;67.64;100682.28;6222401;28;20054;-77
2021/03/27 01:31:07;;;;;;;7.88;3.58;;;;;;;9.33;67.86;100686.72;6222332;28;20058;-76
2021/03/27 01:34:16;;;;;;;6.65;3.47;;;;;;;9.37;67.28;100670.75;6213584;28;20054;-76
2021/03/27 01:37:20;;;;;;;8.18;3.65;;;;;;;9.48;67.47;100666.75;6222447;28;20510;-77
2021/03/27 01:40:35;;;;;;;6.45;3.67;;;;;;;9.53;67.45;100665.56;6222236;28;20042;-77
2021/03/27 01:43:49;;;;;;;6.28;3.72;;;;;;;9.54;67.33;100669.94;6221940;28;20054;-77
2021/03/27 01:47:06;;;;;;;10.07;3.53;;;;;;;9.74;66.28;100657.56;6222262;28;20045;-78
2021/03/27 01:50:34;;;;;;;6.22;3.50;;;;;;;9.66;66.42;100655.31;6222511;28;20054;-77
2021/03/27 01:53:43;;;;;;;9.23;3.85;;;;;;;9.72;67.28;100652.41;6222104;28;20046;-78
2021/03/27 01:56:55;;;;;;;8.60;4.00;;;;;;;9.69;66.42;100659.56;6219841;28;20179;-77
2021/03/27 02:00:01;;;;;;;6.75;3.53;;;;;;;9.69;65.87;100655.16;6222195;28;20050;-77
2021/03/27 02:03:07;;;;;;;6.13;3.50;;;;;;;9.71;66.24;100655.94;6221791;28;20053;-78
2021/03/27 02:06:13;;;;;;;9.88;3.78;;;;;;;9.66;66.30;100652.69;6222459;28;20058;-77
2021/03/27 02:09:24;;;;;;;8.48;3.78;;;;;;;9.69;65.96;100659.56;6222052;28;20534;-77
2021/03/27 02:12:37;;;;;;;7.80;4.28;;;;;;;9.70;65.94;100648.16;6222006;28;20050;-77
2021/03/27 02:15:49;;;;;;;9.65;3.28;;;;;;;9.70;66.07;100646.38;6221947;28;20050;-77
2021/03/27 02:19:04;;;;;;;5.85;3.35;;;;;;;9.73;66.17;100655.88;6222067;28;20050;-77
2021/03/27 02:22:14;;;;;;;5.82;3.30;;;;;;;9.81;65.69;100657.19;6221542;28;20479;-77
2021/03/27 02:26:01;;;;;;;9.88;3.95;;;;;;;9.78;64.66;100651.22;6221712;28;20442;-77
2021/03/27 02:29:31;;;;;;;7.72;3.92;;;;;;;9.71;66.69;100652.47;6122950;29;20051;-77
2021/03/27 02:32:49;;;;;;;7.15;3.90;;;;;;;9.59;67.92;100652.19;6221416;28;20129;-77
2021/03/27 02:36:04;;;;;;;12.73;4.13;;;;;;;9.69;68.89;100664.81;6221745;28;20054;-77
2021/03/27 02:39:16;;;;;;;11.63;4.63;;;;;;;9.45;72.92;100665.13;6224337;28;20056;-77
2021/03/27 02:42:33;;;;;;;10.80;5.32;;;;;;;9.49;73.81;100666.66;6226006;28;20042;-74
2021/03/27 02:45:46;;;;;;;13.90;4.80;;;;;;;9.24;76.03;100672.28;6226325;28;20112;-78
2021/03/27 02:48:54;;;;;;;10.80;5.35;;;;;;;9.09;76.67;100681.75;6226225;28;20046;-74
2021/03/27 02:52:03;;;;;;;12.15;5.43;;;;;;;9.01;79.27;100691.75;6226057;28;20046;-77
2021/03/27 02:55:16;;;;;;;16.00;6.03;;;;;;;8.94;79.52;100706.06;6226139;28;20057;-77
2021/03/27 02:58:24;;;;;;;15.13;8.60;;;;;;;8.96;82.70;100714.72;6226075;28;20057;-73
2021/03/27 03:01:32;;;;;;;20.67;8.77;;;;;;;8.49;86.01;100777.97;6225961;28;20045;-72
2021/03/27 03:04:46;;;;;;;12.02;6.30;;;;;;;7.86;88.11;100778.03;6225862;28;20061;-72
2021/03/27 03:07:53;;;;;;;8.98;4.82;;;;;;;7.52;90.30;100794.25;6225545;28;20498;-73
2021/03/27 03:11:02;;;;;;;5.13;3.50;;;;;;;7.08;93.04;100822.94;6225336;28;20105;-73
2021/03/27 03:14:16;;;;;;;4.53;3.17;;;;;;;6.64;96.65;100828.97;6225378;28;20057;-74
2021/03/27 03:17:27;;;;;;;5.80;3.28;;;;;;;6.40;100.00;100831.50;6225837;28;20061;-75
2021/03/27 03:20:38;;;;;;;4.55;3.28;;;;;;;6.17;100.00;100836.66;6225329;28;20042;-76
2021/03/27 03:23:48;;;;;;;4.60;3.20;;;;;;;6.07;100.00;100862.22;6225246;28;20139;-76
2021/03/27 03:27:13;;;;;;;6.65;3.38;;;;;;;5.96;100.00;100885.22;6225290;28;20065;-76
2021/03/27 03:30:26;;;;;;;9.75;4.88;;;;;;;5.95;100.00;100860.00;6225477;28;20498;-78
2021/03/27 03:33:47;;;;;;;6.82;4.85;;;;;;;5.99;100.00;100874.66;6224917;28;20060;-77
2021/03/27 03:37:03;;;;;;;9.27;4.57;;;;;;;5.82;100.00;100883.00;6225208;28;20053;-78
2021/03/27 03:40:22;;;;;;;7.32;4.38;;;;;;;5.78;100.00;100884.84;6225267;28;20054;-77
2021/03/27 03:43:29;;;;;;;3.25;2.53;;;;;;;5.64;100.00;100879.22;6224826;28;20104;-77
2021/03/27 03:46:41;;;;;;;3.38;2.03;;;;;;;5.41;100.00;100899.91;6225384;28;20057;-78
2021/03/27 03:50:12;;;;;;;3.38;2.08;;;;;;;5.29;100.00;100912.38;6224532;28;20050;-78
2021/03/27 03:53:32;;;;;;;2.42;1.90;;;;;;;5.21;100.00;100916.94;6224761;28;20049;-78
2021/03/27 03:56:40;;;;;;;2.67;1.77;;;;;;;5.15;100.00;100919.75;6225021;28;20088;-78
2021/03/27 03:59:48;;;;;;;2.40;1.70;;;;;;;5.01;100.00;100927.09;6224706;28;20052;-78
2021/03/27 04:03:05;;;;;;;2.92;1.98;;;;;;;5.13;100.00;100949.31;6224414;28;20046;-77
2021/03/27 04:06:13;;;;;;;4.57;2.30;;;;;;;4.95;100.00;100950.69;6224658;28;20053;-78
2021/03/27 04:09:19;;;;;;;3.03;1.98;;;;;;;4.99;100.00;100954.91;6224617;28;20107;-78
2021/03/27 04:12:26;;;;;;;3.67;2.20;;;;;;;5.00;100.00;100970.50;6224157;28;20094;-78
2021/03/27 04:15:35;;;;;;;4.32;2.70;;;;;;;4.99;100.00;100967.94;6224289;28;20517;-77
2021/03/27 04:18:41;;;;;;;4.20;2.60;;;;;;;4.96;100.00;100973.25;6224334;28;20057;-78
2021/03/27 04:21:56;;;;;;;6.50;3.08;;;;;;;4.84;100.00;100964.00;6224029;28;20156;-78
2021/03/27 04:25:11;;;;;;;4.78;3.38;;;;;;;5.02;100.00;100973.06;6223981;28;20077;-77
2021/03/27 04:28:18;;;;;;;5.40;3.08;;;;;;;4.99;100.00;100970.53;6224340;28;20116;-78
2021/03/27 04:31:25;;;;;;;7.22;3.25;;;;;;;4.97;100.00;100969.75;6223662;28;20068;-78
2021/03/27 04:34:33;;;;;;;5.13;3.72;;;;;;;5.04;100.00;100973.88;6224004;28;20057;-77
2021/03/27 04:37:43;;;;;;;8.85;3.90;;;;;;;5.11;100.00;100982.38;6223726;28;20053;-78
2021/03/27 04:40:50;;;;;;;6.60;3.90;;;;;;;5.05;100.00;100980.81;6223605;28;20046;-77
2021/03/27 04:43:55;;;;;;;7.30;4.70;;;;;;;5.13;100.00;100988.41;6223463;28;20054;-78
2021/03/27 04:47:04;;;;;;;10.07;4.50;;;;;;;5.07;100.00;100997.25;6223605;28;20057;-78
2021/03/27 04:50:19;;;;;;;7.80;4.03;;;;;;;5.14;100.00;100996.19;6223582;28;20054;-78
2021/03/27 04:53:27;;;;;;;9.27;4.80;;;;;;;5.13;100.00;101004.88;6223398;28;20295;-78
2021/03/27 04:56:35;;;;;;;6.68;4.15;;;;;;;5.22;100.00;101003.78;6223260;28;20054;-78
2021/03/27 04:59:50;;;;;;;6.93;4.68;;;;;;;5.09;100.00;101008.50;6223326;28;20049;-77
2021/03/27 05:03:09;;;;;;;11.50;4.93;;;;;;;5.11;100.00;101004.06;6222257;28;20046;-77
2021/03/27 05:06:16;;;;;;;9.55;5.28;;;;;;;5.09;100.00;101019.75;6223200;28;20076;-77
2021/03/27 05:09:34;;;;;;;7.65;5.18;;;;;;;4.99;100.00;101017.41;6223142;28;20423;-77
2021/03/27 05:12:52;;;;;;;8.73;5.57;;;;;;;5.01;100.00;101026.06;6222917;28;20049;-77
2021/03/27 05:15:59;;;;;;;7.70;5.78;;;;;;;4.95;100.00;101039.22;6223309;28;20049;-78
2021/03/27 05:19:05;;;;;;;13.18;6.03;;;;;;;4.98;100.00;101034.78;6223430;28;20097;-78
2021/03/27 05:22:16;;;;;;;9.98;5.53;;;;;;;5.05;100.00;101041.56;6222914;28;20046;-79
2021/03/27 05:25:37;;;;;;;10.52;6.13;;;;;;;4.97;100.00;101045.25;6222711;28;20129;-77
2021/03/27 05:29:26;;;;;;;9.80;6.00;;;;;;;4.95;100.00;101034.91;6199958;28;20451;-77
2021/03/27 05:32:48;;;;;;;11.57;7.40;;;;;;;4.97;100.00;101051.31;6152003;28;20054;-78
2021/03/27 05:35:57;;;;;;;10.93;7.20;;;;;;;5.03;100.00;101056.38;6198420;28;20112;-77
2021/03/27 05:39:12;;;;;;;11.80;7.27;;;;;;;4.95;100.00;101073.97;6198250;28;20148;-76
2021/03/27 05:42:53;;;;;;;14.23;7.68;;;;;;;4.92;100.00;101087.03;6198328;28;20050;-77
2021/03/27 05:46:31;;;;;;;8.85;5.60;;;;;;;4.89;100.00;101081.03;6198063;28;20054;-76
2021/03/27 05:49:48;;;;;;;10.23;6.33;;;;;;;4.78;100.00;101105.59;6198511;28;20050;-77
2021/03/27 05:53:05;;;;;;;9.27;4.47;;;;;;;4.74;100.00;101122.19;6197842;28;20053;-77
2021/03/27 05:56:42;;;;;;;10.25;3.80;;;;;;;4.36;100.00;101106.56;6198438;28;20104;-79
2021/03/27 06:00:16;;;;;;;6.22;2.90;;;;;;;4.28;100.00;101111.94;6197790;28;20042;-76
2021/03/27 06:03:26;;;;;;;6.95;3.22;;;;;;;4.23;100.00;101114.66;6185949;28;20489;-77
2021/03/27 06:06:49;;;;;;;7.15;3.47;;;;;;;4.29;100.00;101106.72;6176503;28;20047;-78
2021/03/27 06:10:38;;;;;;;9.60;3.10;;;;;;;4.30;100.00;101105.81;6198067;28;20450;-79
2021/03/27 06:14:07;;;;;;;7.20;2.73;;;;;;;4.40;100.00;101124.69;6169677;28;20116;-77
2021/03/27 06:17:25;;;;;;;7.68;3.00;;;;;;;4.36;100.00;101117.84;6199668;28;20050;-78
2021/03/27 06:20:42;;;;;;;10.05;2.65;;;;;;;4.30;100.00;101115.38;6197616;28;20058;-78
2021/03/27 06:23:52;;;;;;;10.65;2.80;;;;;;;4.39;100.00;101122.97;6188337;28;20057;-78
2021/03/27 06:27:06;;;;;;;10.45;2.30;;;;;;;4.29;100.00;101124.06;6194402;28;20054;-77
2021/03/27 06:30:36;;;;;;;11.02;2.25;;;;;;;4.30;100.00;101131.81;6178457;28;20047;-76
2021/03/27 06:33:56;;;;;;;7.43;2.35;;;;;;;4.21;100.00;101129.41;6177893;28;20077;-78
2021/03/27 06:37:23;;;;;;;13.27;1.98;;;;;;;4.29;100.00;101131.88;6178379;28;20050;-78
2021/03/27 06:40:45;;;;;;;6.32;1.85;;;;;;;4.23;100.00;101135.47;6178017;28;20416;-78
2021/03/27 06:44:05;;;;;;;8.40;2.15;;;;;;;4.20;100.00;101139.88;6177793;28;20054;-77
2021/03/27 06:47:26;;;;;;;7.18;2.30;;;;;;;4.19;100.00;101151.16;6186567;28;20050;-78
2021/03/27 06:50:53;;;;;;;6.70;2.13;;;;;;;4.27;100.00;101155.31;6188965;28;20594;-79
2021/03/27 06:54:23;;;;;;;7.22;2.53;;;;;;;4.36;100.00;101162.09;6185804;28;20063;-78
2021/03/27 06:57:44;;;;;;;;;;;;;;;4.63;100.00;101164.97;6219387;23;20049;-83
2021/03/27 07:00:50;;;;;;;6.15;2.85;;;;;;;4.50;100.00;101167.84;6250013;28;19974;-81
2021/03/27 07:04:28;;;;;;;12.73;3.58;;;;;;;4.52;100.00;101173.00;6232404;28;20503;-82
2021/03/27 07:07:49;;;;;;;14.55;4.00;;;;;;;4.62;100.00;101179.72;6230349;28;20041;-80
2021/03/27 07:11:14;;;;;;;9.63;4.20;;;;;;;4.88;99.22;101192.16;6238079;28;20053;-82
2021/03/27 07:14:46;;;;;;;12.30;4.35;;;;;;;4.76;98.75;101187.22;6236968;28;20042;-80
2021/03/27 07:18:02;;;;;;;13.32;4.82;;;;;;;5.03;98.05;101188.34;6236158;28;20065;-81
2021/03/27 07:21:30;;;;;;;14.68;4.28;;;;;;;4.97;97.38;101188.50;6234593;28;20422;-81
2021/03/27 07:24:49;;;;;;;14.50;5.38;;;;;;;5.11;96.59;101183.81;6234045;28;20053;-78
2021/03/27 07:28:11;;;;;;;21.23;5.90;;;;;;;5.30;95.54;101187.69;6236325;28;20050;-82
2021/03/27 07:31:39;;;;;;;22.15;6.22;;;;;;;5.27;94.21;101176.50;6235300;28;20100;-80
2021/03/27 07:35:02;;;;;;;20.77;5.82;;;;;;;5.38;93.12;101191.88;6237732;28;20054;-81
2021/03/27 07:38:36;;;;;;;23.25;6.95;;;;;;;5.46;93.01;101205.56;6236827;28;20434;-81
2021/03/27 07:41:52;;;;;;;14.13;6.10;;;;;;;5.72;94.29;101195.34;6225495;28;20521;-82
2021/03/27 07:45:05;;;;;;;11.23;5.32;;;;;;;5.89;91.28;101196.63;6225189;28;20050;-81
2021/03/27 07:48:37;;;;;;;14.77;5.53;;;;;;;5.88;91.62;101203.59;6224833;28;20053;-80
2021/03/27 07:51:57;;;;;;;22.98;6.65;;;;;;;5.92;88.80;101207.88;6224407;28;20513;-80
2021/03/27 07:55:37;;;;;;;18.10;6.43;;;;;;;6.00;90.80;101210.28;6224535;28;20054;-81
2021/03/27 07:58:52;;;;;;;;;;;;;;;5.95;89.11;101201.72;6240511;28;20137;-81
2021/03/27 08:02:07;;;;;;;22.35;6.88;;;;;;;6.01;90.48;101199.81;6241096;28;19921;-80
2021/03/27 08:05:46;;;;;;;23.77;6.85;;;;;;;5.98;90.54;101220.75;6224175;28;20049;-80
2021/03/27 08:09:11;;;;;;;17.33;5.57;;;;;;;6.05;90.78;101216.25;6217617;28;20053;-80
2021/03/27 08:12:28;;;;;;;16.08;6.78;;;;;;;6.29;87.72;101214.69;6223943;28;20049;-80
2021/03/27 08:15:55;;;;;;;17.92;5.78;;;;;;;6.16;89.02;101227.22;6226733;28;20048;-80
2021/03/27 08:19:16;;;;;;;17.60;6.13;;;;;;;6.11;89.41;101223.88;6229434;28;20054;-80
2021/03/27 08:22:51;;;;;;;19.63;6.18;;;;;;;6.04;90.70;101236.25;6232923;28;20049;-79
2021/03/27 08:26:39;;;;;;;15.40;5.72;;;;;;;6.06;88.69;101241.41;6231128;28;20046;-80
2021/03/27 08:30:25;;;;;;;21.27;6.03;;;;;;;6.20;89.40;101241.06;6164470;28;20047;-80
2021/03/27 08:33:45;;;;;;;18.85;6.43;;;;;;;6.01;88.81;101233.72;6238326;28;20056;-80
2021/03/27 08:37:13;;;;;;;20.35;6.25;;;;;;;6.00;90.30;101237.22;6228129;28;20045;-80
2021/03/27 08:40:47;;;;;;;21.38;6.80;;;;;;;6.09;91.83;101257.84;6231236;28;20042;-79
2021/03/27 08:44:19;;;;;;;18.33;6.53;;;;;;;5.88;94.11;101254.91;6234378;28;20053;-78
2021/03/27 08:47:44;;;;;;;14.77;6.18;;;;;;;5.80;96.20;101266.38;6223367;28;20057;-80
2021/03/27 08:51:06;;;;;;;14.50;5.28;;;;;;;5.16;96.73;101278.34;6223324;28;20046;-78
2021/03/27 08:54:51;;;;;;;12.27;3.33;;;;;;;4.65;93.39;101283.78;6237670;28;20097;-78
2021/03/27 08:58:20;;;;;;;8.60;3.30;;;;;;;4.36;94.05;101299.97;6368485;27;20158;-78
2021/03/27 09:01:43;;;;;;;11.70;3.55;;;;;;;4.26;95.90;101308.81;6368530;27;20636;-77
2021/03/27 09:05:22;;;;;;;8.75;4.50;;;;;;;4.38;95.81;101316.41;6369172;27;20051;-78
2021/03/27 09:08:37;;;;;;;12.73;3.08;;;;;;;4.10;97.24;101313.47;6368465;27;20052;-78
2021/03/27 09:12:04;;;;;;;6.68;2.97;;;;;;;4.15;99.35;101318.56;6368290;27;20074;-78
2021/03/27 09:15:19;;;;;;;9.27;3.10;;;;;;;4.39;97.46;101314.66;6368529;27;20055;-78
2021/03/27 09:18:38;;;;;;;14.02;3.72;;;;;;;4.47;96.64;101323.19;6368232;27;20083;-78
2021/03/27 09:21:52;;;;;;;11.13;3.88;;;;;;;4.37;96.36;101316.44;6368143;27;20518;-78
2021/03/27 09:25:04;;;;;;;14.00;3.88;;;;;;;4.54;97.63;101323.06;6368211;27;20048;-79
2021/03/27 09:28:22;;;;;;;15.45;4.68;;;;;;;4.48;99.04;101336.16;6368227;27;20070;-78
2021/03/27 09:31:54;;;;;;;18.17;5.05;;;;;;;4.57;99.24;101345.53;6367846;27;20051;-79
2021/03/27 09:35:17;;;;;;;13.02;4.03;;;;;;;4.72;100.00;101357.41;6350668;27;20051;-78
2021/03/27 09:38:30;;;;;;;9.80;4.15;;;;;;;4.67;99.64;101361.84;6367787;27;20074;-78
2021/03/27 09:41:51;;;;;;;11.63;4.20;;;;;;;4.57;100.00;101374.19;6367571;27;20055;-79
2021/03/27 09:45:08;;;;;;;11.40;4.22;;;;;;;4.52;100.00;101379.47;6367695;27;20411;-78
2021/03/27 09:48:34;;;;;;;14.70;4.38;;;;;;;4.43;100.00;101363.16;6367539;27;20052;-80
2021/03/27 09:52:14;;;;;;;15.55;4.55;;;;;;;4.46;100.00;101397.81;6367364;27;20088;-79
2021/03/27 09:55:31;;;;;;;19.25;4.72;;;;;;;4.41;100.00;101384.03;6367446;27;20055;-73
2021/03/27 09:58:46;;;;;;;13.20;4.00;;;;;;;4.61;100.00;101388.84;6367305;27;20047;-80
2021/03/27 10:01:52;;;;;;;20.02;5.35;;;;;;;4.48;100.00;101401.22;6367138;27;20058;-79
2021/03/27 10:05:02;;;;;;;15.63;4.85;;;;;;;4.73;100.00;101413.81;6367190;27;20138;-79
2021/03/27 10:08:18;;;;;;;8.38;4.38;;;;;;;4.83;100.00;101408.41;6353437;27;20051;-80
2021/03/27 10:11:22;;;;;;;15.60;5.28;;;;;;;4.93;100.00;101418.63;6349665;28;20078;-81
2021/03/27 10:14:27;;;;;;;16.02;4.25;;;;;;;4.90;100.00;101442.13;6348045;28;20415;-80
2021/03/27 10:17:32;;;;;;;13.55;4.10;;;;;;;4.82;100.00;101432.72;6349688;28;20621;-79
2021/03/27 10:20:42;;;;;;;13.73;3.70;;;;;;;4.83;100.00;101446.59;6349739;27;20048;-79
2021/03/27 10:23:54;;;;;;;15.45;3.78;;;;;;;5.03;100.00;101444.47;6349486;28;20101;-79
2021/03/27 10:27:02;;;;;;;12.60;4.78;;;;;;;4.94;100.00;101446.38;6349673;28;20044;-80
2021/03/27 10:30:17;;;;;;;15.52;3.97;;;;;;;5.12;100.00;101451.25;6349815;28;20131;-79
2021/03/27 10:33:21;;;;;;;14.63;4.03;;;;;;;5.30;99.26;101453.50;6349176;28;20052;-79
2021/03/27 10:36:32;;;;;;;10.43;3.35;;;;;;;5.32;99.04;101459.53;6349692;28;20043;-77
2021/03/27 10:39:43;;;;;;;18.70;3.90;;;;;;;5.42;97.33;101464.56;6337103;28;20055;-76
2021/03/27 10:43:05;;;;;;;13.65;4.32;;;;;;;5.73;96.03;101478.69;6348524;27;20105;-77
2021/03/27 10:46:21;;;;;;;14.98;3.00;;;;;;;5.92;94.27;101470.47;6348562;28;20652;-78
2021/03/27 10:49:28;;;;;;;12.52;3.55;;;;;;;6.15;93.87;101464.75;6348992;27;20070;-76
2021/03/27 10:52:51;;;;;;;12.43;3.08;;;;;;;6.24;91.54;101467.97;6348101;27;20047;-78
2021/03/27 10:56:13;;;;;;;14.88;2.97;;;;;;;6.38;89.58;101464.19;6348037;28;20512;-76
2021/03/27 10:59:28;;;;;;;15.07;2.70;;;;;;;6.34;87.36;101477.31;6348689;28;20048;-75
2021/03/27 11:02:47;;;;;;;21.42;4.25;;;;;;;6.41;86.30;101478.03;6347916;28;20153;-77
2021/03/27 11:06:11;;;;;;;21.88;3.15;;;;;;;6.46;83.08;101475.31;6347535;28;20047;-77
2021/03/27 11:09:54;;;;;;;21.52;2.72;;;;;;;6.45;80.79;101476.19;6343968;28;20040;-78
2021/03/27 11:13:26;;;;;;;16.45;2.97;;;;;;;6.73;80.05;101487.66;6301080;27;20052;-77
2021/03/27 11:16:37;;;;;;;12.63;2.58;;;;;;;7.02;79.72;101489.50;6328006;28;20048;-75
2021/03/27 11:20:07;;;;;;;13.30;3.97;;;;;;;7.15;80.28;101491.81;6344544;28;20393;-74
2021/03/27 11:23:29;;;;;;;14.32;2.80;;;;;;;7.26;82.06;101494.97;6345271;28;20051;-76
2021/03/27 11:26:58;;;;;;;11.02;2.72;;;;;;;7.16;82.70;101498.75;6340143;28;20040;-76
2021/03/27 11:30:07;;;;;;;15.45;2.85;;;;;;;6.79;80.45;101507.53;6336056;28;20504;-77
2021/03/27 11:33:21;;;;;;;9.15;3.53;;;;;;;6.67;80.80;101515.69;6333401;28;20047;-77
2021/03/27 11:36:27;;;;;;;10.93;2.25;;;;;;;6.57;79.30;101517.66;6333069;28;20097;-77
2021/03/27 11:39:35;;;;;;;11.30;2.60;;;;;;;7.01;73.71;101513.94;6343838;28;20051;-76
2021/03/27 11:42:44;;;;;;;19.00;3.03;;;;;;;7.41;73.27;101510.25;6336396;28;20055;-76
2021/03/27 11:45:50;;;;;;;13.50;2.03;;;;;;;7.46;73.02;101526.66;6334683;28;20039;-76
2021/03/27 11:48:55;;;;;;;5.18;0.85;;;;;;;6.31;72.48;101614.84;6345423;28;20044;-79
2021/03/27 11:52:05;;;;;;;3.47;0.55;;;;;;;4.57;82.91;101601.50;6347569;28;20078;-74
2021/03/27 11:55:18;;;;;;;3.05;0.50;;;;;;;3.55;90.71;101662.56;6347558;28;20043;-74
2021/03/27 11:58:31;;;;;;;1.40;0.70;;;;;;;3.28;94.13;101642.91;6343764;28;20047;-78
2021/03/27 12:01:38;;;;;;;4.38;0.75;;;;;;;3.02;96.46;101651.75;6333454;28;20101;-76
2021/03/27 12:04:53;;;;;;;9.27;1.33;;;;;;;2.87;97.52;101671.78;6347295;28;20083;-76
2021/03/27 12:08:06;;;;;;;6.35;1.00;;;;;;;2.57;99.32;101693.59;6347350;28;20040;-79
2021/03/27 12:11:12;;;;;;;9.70;1.10;;;;;;;2.51;100.00;101687.56;6347046;28;20055;-75
2021/03/27 12:14:17;;;;;;;3.85;1.13;;;;;;;2.54;100.00;101690.16;6343900;28;20055;-75
2021/03/27 12:17:26;;;;;;;12.25;2.25;;;;;;;2.60;100.00;101652.91;6343938;28;20044;-76
2021/03/27 12:20:33;;;;;;;4.65;1.00;;;;;;;2.70;100.00;101666.69;6321962;28;20059;-76
2021/03/27 12:23:39;;;;;;;7.03;1.25;;;;;;;2.94;99.68;101687.28;6328575;28;20130;-75
2021/03/27 12:26:52;;;;;;;7.00;1.73;;;;;;;3.00;100.00;101691.63;6346402;28;20043;-76
2021/03/27 12:30:06;;;;;;;8.82;1.45;;;;;;;3.39;97.15;101698.22;6346557;28;20096;-77
2021/03/27 12:33:13;;;;;;;5.93;1.65;;;;;;;3.40;97.98;101702.53;6341044;28;20140;-77
2021/03/27 12:36:19;;;;;;;6.30;1.85;;;;;;;3.75;98.10;101712.63;6345432;28;20048;-77
2021/03/27 12:39:26;;;;;;;6.90;1.80;;;;;;;3.78;97.42;101715.19;6346557;28;20412;-77
2021/03/27 12:42:35;;;;;;;14.15;1.35;;;;;;;4.07;95.13;101712.28;6346403;28;20048;-77
2021/03/27 12:45:39;;;;;;;6.13;1.40;;;;;;;4.07;96.08;101714.03;6346597;28;20052;-76
2021/03/27 12:49:04;;;;;;;9.98;1.30;;;;;;;4.20;94.61;101720.81;6346397;28;20051;-76
2021/03/27 12:52:33;;;;;;;6.18;1.10;;;;;;;4.20;92.60;101726.03;6346160;28;20101;-77
2021/03/27 12:55:40;;;;;;;9.23;2.60;;;;;;;4.41;93.09;101727.53;6333327;28;20047;-77
2021/03/27 12:58:50;;;;;;;6.25;1.25;;;;;;;4.49;91.40;101722.19;6302284;22;20056;-79
2021/03/27 13:02:08;;;;;;;4.22;1.02;;;;;;;4.55;92.50;101738.63;6254460;28;20060;-79
2021/03/27 13:05:17;;;;;;;6.38;1.98;;;;;;;4.82;89.06;101744.34;6245693;28;20049;-79
2021/03/27 13:08:33;;;;;;;7.00;1.10;;;;;;;5.15;88.53;101737.78;6245302;28;20049;-78
2021/03/27 13:11:45;;;;;;;4.50;1.20;;;;;;;5.48;87.42;101749.44;6246113;28;20042;-77
2021/03/27 13:15:21;;;;;;;7.78;0.90;;;;;;;5.75;86.17;101744.66;6246302;28;20488;-76
2021/03/27 13:18:39;;;;;;;4.40;1.20;;;;;;;5.77;83.14;101746.34;6245771;28;20045;-76
2021/03/27 13:22:08;;;;;;;4.68;1.05;;;;;;;5.99;83.24;101751.22;6246112;28;20053;-76
2021/03/27 13:25:21;;;;;;;7.68;1.20;;;;;;;6.18;82.83;101750.00;6246468;28;20050;-75
2021/03/27 13:28:31;;;;;;;7.57;1.35;;;;;;;6.35;79.40;101775.75;6221754;28;20053;-75
2021/03/27 13:31:40;;;;;;;8.38;1.55;;;;;;;5.98;80.88;101759.94;6221322;28;20104;-76
2021/03/27 13:34:45;;;;;;;8.27;1.45;;;;;;;6.29;81.46;101774.13;6239631;28;20045;-75
2021/03/27 13:37:51;;;;;;;6.70;1.48;;;;;;;6.54;78.21;101761.47;6246025;28;20054;-78
2021/03/27 13:40:54;;;;;;;9.95;1.15;;;;;;;6.82;77.54;101753.06;6245729;28;20449;-76
2021/03/27 13:44:04;;;;;;;13.27;1.70;;;;;;;7.11;77.50;101747.16;6249724;28;20100;-77
2021/03/27 13:47:14;;;;;;;12.88;1.88;;;;;;;6.92;75.82;101758.94;6250543;28;20045;-76
2021/03/27 13:50:23;;;;;;;8.68;1.40;;;;;;;6.50;77.36;101749.38;6250702;28;20053;-77
2021/03/27 13:53:39;;;;;;;7.15;1.40;;;;;;;6.93;75.04;101761.50;6250276;28;20053;-76
2021/03/27 13:56:47;;;;;;;9.30;1.40;;;;;;;6.93;76.11;101764.13;6250199;28;20115;-76
2021/03/27 13:59:55;;;;;;;5.53;1.48;;;;;;;7.19;74.93;101781.84;6248098;28;20164;-76
2021/03/27 14:03:05;;;;;;;6.10;1.23;;;;;;;7.35;71.84;101774.50;6249698;28;20053;-75
2021/03/27 14:06:20;;;;;;;4.45;1.38;;;;;;;7.00;72.54;101778.78;6250149;28;20041;-75
2021/03/27 14:09:40;;;;;;;4.03;0.77;;;;;;;7.46;68.64;101789.94;6249578;28;20060;-75
2021/03/27 14:12:45;;;;;;;1.60;0.40;;;;;;;7.46;70.64;101790.81;6247112;28;20430;-75
2021/03/27 14:15:50;;;;;;;2.83;0.77;;;;;;;7.83;68.34;101787.28;6247768;28;20100;-75
2021/03/27 14:19:08;;;;;;;4.35;1.00;;;;;;;7.40;72.04;101783.09;6248580;28;20104;-74
2021/03/27 14:22:22;;;;;;;0.98;0.40;;;;;;;7.28;71.22;101788.63;6249573;28;20053;-75
2021/03/27 14:25:36;;;;;;;3.03;0.70;;;;;;;6.90;71.47;101792.91;6249641;28;20041;-74
2021/03/27 14:28:47;;;;;;;5.45;1.20;;;;;;;6.61;74.13;101797.00;6239355;28;20430;-75
2021/03/27 14:31:53;;;;;;;3.97;0.85;;;;;;;6.38;74.66;101801.81;6245242;28;20042;-75
2021/03/27 14:35:05;;;;;;;3.97;0.93;;;;;;;6.08;74.25;101806.69;6247579;28;20041;-76
2021/03/27 14:38:24;;;;;;;2.40;0.90;;;;;;;6.08;77.19;101809.31;6249277;28;20513;-76
2021/03/27 14:41:34;;;;;;;4.23;0.90;;;;;;;5.89;79.27;101812.22;6248809;28;20054;-76
2021/03/27 14:44:44;;;;;;;12.15;2.63;;;;;;;5.83;76.84;101831.47;6249407;28;20538;-76
2021/03/27 14:47:58;;;;;;;12.98;2.25;;;;;;;6.27;73.16;101851.63;6249045;28;20517;-75
2021/03/27 14:51:07;;;;;;;9.82;0.85;;;;;;;4.25;88.38;101911.56;6249027;28;20128;-77
2021/03/27 14:54:35;;;;;;;2.08;0.40;;;;;;;2.91;96.90;101921.00;6248811;28;20489;-76
2021/03/27 14:57:46;;;;;;;5.28;0.80;;;;;;;2.23;100.00;101937.50;6249167;28;20061;-78
2021/03/27 15:00:58;;;;;;;3.80;1.30;;;;;;;2.21;100.00;101924.53;6249328;28;20065;-77
2021/03/27 15:04:10;;;;;;;4.70;0.93;;;;;;;2.21;100.00;101916.75;6248913;28;20406;-79
2021/03/27 15:07:17;;;;;;;2.55;1.10;;;;;;;2.47;100.00;101911.56;6249373;28;20156;-77
2021/03/27 15:10:54;;;;;;;8.82;2.97;;;;;;;2.81;100.00;101893.31;6255237;28;20413;-76
2021/03/27 15:14:03;;;;;;;3.13;0.70;;;;;;;3.67;100.00;101904.16;6252873;28;20144;-77